sensor_id;sensor_type;location;lat;lon;timestamp;pressure;altitude;pressure_sealevel;temperature;humidity
74544;BME280;63016;55.030;38.710;2024-03-17T00:01:33;100377.19;;;-0.66;49.90
74544;BME280;63016;55.030;38.710;2024-03-17T00:03:58;100371.31;;;-0.68;49.77
74544;BME280;63016;55.030;38.710;2024-03-17T00:06:24;100368.84;;;-0.70;49.83
74544;BME280;63016;55.030;38.710;2024-03-17T00:08:49;100371.66;;;-0.74;50.00
74544;BME280;63016;55.030;38.710;2024-03-17T00:11:15;100361.53;;;-0.78;49.31
74544;BME280;63016;55.030;38.710;2024-03-17T00:13:41;100371.97;;;-0.81;49.75
74544;BME280;63016;55.030;38.710;2024-03-17T00:16:07;100363.63;;;-0.84;49.45
74544;BME280;63016;55.030;38.710;2024-03-17T00:18:32;100360.31;;;-0.86;49.55
74544;BME280;63016;55.030;38.710;2024-03-17T00:20:58;100354.53;;;-0.90;49.87
74544;BME280;63016;55.030;38.710;2024-03-17T00:23:25;100353.94;;;-0.95;49.90
74544;BME280;63016;55.030;38.710;2024-03-17T00:25:50;100353.03;;;-0.94;50.07
74544;BME280;63016;55.030;38.710;2024-03-17T00:28:16;100352.31;;;-0.96;49.21
74544;BME280;63016;55.030;38.710;2024-03-17T00:30:42;100353.38;;;-1.00;49.84
74544;BME280;63016;55.030;38.710;2024-03-17T00:33:08;100337.47;;;-1.07;50.04
74544;BME280;63016;55.030;38.710;2024-03-17T00:35:33;100345.16;;;-1.07;49.94
74544;BME280;63016;55.030;38.710;2024-03-17T00:37:59;100348.63;;;-1.08;49.80
74544;BME280;63016;55.030;38.710;2024-03-17T00:40:25;100342.19;;;-1.15;49.76
74544;BME280;63016;55.030;38.710;2024-03-17T00:42:51;100343.00;;;-1.14;49.18
74544;BME280;63016;55.030;38.710;2024-03-17T00:45:16;100343.97;;;-1.17;49.63
74544;BME280;63016;55.030;38.710;2024-03-17T00:47:42;100328.81;;;-1.20;49.63
74544;BME280;63016;55.030;38.710;2024-03-17T00:50:08;100328.03;;;-1.22;50.10
74544;BME280;63016;55.030;38.710;2024-03-17T00:52:37;100337.47;;;-1.22;49.77
74544;BME280;63016;55.030;38.710;2024-03-17T00:55:03;100333.41;;;-1.26;49.96
74544;BME280;63016;55.030;38.710;2024-03-17T00:57:29;100343.72;;;-1.28;49.34
74544;BME280;63016;55.030;38.710;2024-03-17T00:59:54;100334.47;;;-1.31;49.61
74544;BME280;63016;55.030;38.710;2024-03-17T01:02:20;100329.50;;;-1.34;49.43
74544;BME280;63016;55.030;38.710;2024-03-17T01:04:47;100327.88;;;-1.35;49.89
74544;BME280;63016;55.030;38.710;2024-03-17T01:07:12;100326.28;;;-1.37;50.03
74544;BME280;63016;55.030;38.710;2024-03-17T01:09:38;100328.00;;;-1.38;50.05
74544;BME280;63016;55.030;38.710;2024-03-17T01:12:04;100324.72;;;-1.40;49.87
74544;BME280;63016;55.030;38.710;2024-03-17T01:14:31;100324.78;;;-1.41;49.94
74544;BME280;63016;55.030;38.710;2024-03-17T01:16:57;100319.84;;;-1.44;49.94
74544;BME280;63016;55.030;38.710;2024-03-17T01:19:23;100313.22;;;-1.48;49.83
74544;BME280;63016;55.030;38.710;2024-03-17T01:21:49;100320.06;;;-1.49;49.73
74544;BME280;63016;55.030;38.710;2024-03-17T01:24:17;100316.75;;;-1.51;49.48
74544;BME280;63016;55.030;38.710;2024-03-17T01:26:42;100319.38;;;-1.52;49.59
74544;BME280;63016;55.030;38.710;2024-03-17T01:29:08;100315.41;;;-1.58;49.45
74544;BME280;63016;55.030;38.710;2024-03-17T01:31:34;100312.84;;;-1.58;49.63
74544;BME280;63016;55.030;38.710;2024-03-17T01:34:00;100309.53;;;-1.60;49.94
74544;BME280;63016;55.030;38.710;2024-03-17T01:36:26;100310.44;;;-1.61;49.70
74544;BME280;63016;55.030;38.710;2024-03-17T01:38:51;100310.75;;;-1.67;49.94
74544;BME280;63016;55.030;38.710;2024-03-17T01:41:17;100320.84;;;-1.64;49.51
74544;BME280;63016;55.030;38.710;2024-03-17T01:43:42;100309.94;;;-1.68;50.22
74544;BME280;63016;55.030;38.710;2024-03-17T01:46:13;100312.56;;;-1.69;50.17
74544;BME280;63016;55.030;38.710;2024-03-17T01:48:39;100307.75;;;-1.75;49.51
74544;BME280;63016;55.030;38.710;2024-03-17T01:51:05;100317.06;;;-1.74;49.99
74544;BME280;63016;55.030;38.710;2024-03-17T01:53:32;100309.47;;;-1.76;49.90
74544;BME280;63016;55.030;38.710;2024-03-17T01:55:59;100324.09;;;-1.78;49.73
74544;BME280;63016;55.030;38.710;2024-03-17T01:58:30;100307.06;;;-1.79;50.08
74544;BME280;63016;55.030;38.710;2024-03-17T02:00:56;100303.84;;;-1.83;49.49
74544;BME280;63016;55.030;38.710;2024-03-17T02:03:22;100299.66;;;-1.84;49.91
74544;BME280;63016;55.030;38.710;2024-03-17T02:05:48;100292.13;;;-1.87;49.89
74544;BME280;63016;55.030;38.710;2024-03-17T02:08:13;100283.84;;;-1.92;49.96
74544;BME280;63016;55.030;38.710;2024-03-17T02:10:39;100299.78;;;-1.87;50.01
74544;BME280;63016;55.030;38.710;2024-03-17T02:13:04;100288.97;;;-1.92;49.48
74544;BME280;63016;55.030;38.710;2024-03-17T02:15:34;100285.50;;;-1.91;49.76
74544;BME280;63016;55.030;38.710;2024-03-17T02:17:59;100287.31;;;-1.93;49.69
74544;BME280;63016;55.030;38.710;2024-03-17T02:20:25;100288.19;;;-1.94;49.99
74544;BME280;63016;55.030;38.710;2024-03-17T02:23:09;100283.09;;;-1.94;49.52
74544;BME280;63016;55.030;38.710;2024-03-17T02:25:35;100280.75;;;-1.98;49.64
74544;BME280;63016;55.030;38.710;2024-03-17T02:28:01;100283.31;;;-1.98;50.09
74544;BME280;63016;55.030;38.710;2024-03-17T02:30:26;100287.59;;;-1.99;50.08
74544;BME280;63016;55.030;38.710;2024-03-17T02:32:53;100276.88;;;-2.05;49.98
74544;BME280;63016;55.030;38.710;2024-03-17T02:35:18;100278.38;;;-2.01;49.69
74544;BME280;63016;55.030;38.710;2024-03-17T02:37:44;100289.50;;;-2.02;49.92
74544;BME280;63016;55.030;38.710;2024-03-17T02:40:10;100281.91;;;-2.04;50.00
74544;BME280;63016;55.030;38.710;2024-03-17T02:42:36;100275.28;;;-2.08;49.84
74544;BME280;63016;55.030;38.710;2024-03-17T02:45:04;100283.03;;;-2.10;49.59
74544;BME280;63016;55.030;38.710;2024-03-17T02:47:30;100272.28;;;-2.16;50.25
74544;BME280;63016;55.030;38.710;2024-03-17T02:49:55;100273.94;;;-2.15;49.89
74544;BME280;63016;55.030;38.710;2024-03-17T02:52:21;100269.66;;;-2.15;50.08
74544;BME280;63016;55.030;38.710;2024-03-17T02:54:46;100271.53;;;-2.18;49.66
74544;BME280;63016;55.030;38.710;2024-03-17T02:57:12;100263.84;;;-2.18;49.57
74544;BME280;63016;55.030;38.710;2024-03-17T02:59:37;100272.44;;;-2.19;49.52
74544;BME280;63016;55.030;38.710;2024-03-17T03:02:03;100271.84;;;-2.24;49.69
74544;BME280;63016;55.030;38.710;2024-03-17T03:04:30;100276.03;;;-2.23;49.50
74544;BME280;63016;55.030;38.710;2024-03-17T03:06:55;100266.03;;;-2.28;49.42
74544;BME280;63016;55.030;38.710;2024-03-17T03:09:21;100272.88;;;-2.28;49.70
74544;BME280;63016;55.030;38.710;2024-03-17T03:12:00;100273.03;;;-2.31;49.93
74544;BME280;63016;55.030;38.710;2024-03-17T03:14:29;100271.38;;;-2.33;49.85
74544;BME280;63016;55.030;38.710;2024-03-17T03:16:55;100269.81;;;-2.35;50.03
74544;BME280;63016;55.030;38.710;2024-03-17T03:19:21;100257.38;;;-2.43;49.83
74544;BME280;63016;55.030;38.710;2024-03-17T03:21:47;100265.00;;;-2.41;49.61
74544;BME280;63016;55.030;38.710;2024-03-17T03:24:16;100261.38;;;-2.37;49.76
74544;BME280;63016;55.030;38.710;2024-03-17T03:26:42;100257.47;;;-2.44;49.31
74544;BME280;63016;55.030;38.710;2024-03-17T03:29:11;100265.03;;;-2.43;49.68
74544;BME280;63016;55.030;38.710;2024-03-17T03:31:37;100255.00;;;-2.46;49.79
74544;BME280;63016;55.030;38.710;2024-03-17T03:34:04;100255.00;;;-2.46;49.60
74544;BME280;63016;55.030;38.710;2024-03-17T03:36:33;100247.69;;;-2.53;50.18
74544;BME280;63016;55.030;38.710;2024-03-17T03:38:59;100256.03;;;-2.50;49.36
74544;BME280;63016;55.030;38.710;2024-03-17T03:41:24;100256.13;;;-2.51;49.71
74544;BME280;63016;55.030;38.710;2024-03-17T03:43:50;100245.97;;;-2.53;49.99
74544;BME280;63016;55.030;38.710;2024-03-17T03:46:15;100256.25;;;-2.54;49.59
74544;BME280;63016;55.030;38.710;2024-03-17T03:48:41;100253.63;;;-2.53;49.52
74544;BME280;63016;55.030;38.710;2024-03-17T03:51:07;100238.72;;;-2.62;50.04
74544;BME280;63016;55.030;38.710;2024-03-17T03:53:35;100260.59;;;-2.56;49.90
74544;BME280;63016;55.030;38.710;2024-03-17T03:56:03;100247.22;;;-2.62;49.68
74544;BME280;63016;55.030;38.710;2024-03-17T03:58:38;100259.03;;;-2.59;49.71
74544;BME280;63016;55.030;38.710;2024-03-17T04:01:05;100254.81;;;-2.60;49.93
74544;BME280;63016;55.030;38.710;2024-03-17T04:03:32;100260.00;;;-2.62;49.96
74544;BME280;63016;55.030;38.710;2024-03-17T04:06:06;100253.19;;;-2.61;50.19
74544;BME280;63016;55.030;38.710;2024-03-17T04:08:33;100251.44;;;-2.61;50.01
74544;BME280;63016;55.030;38.710;2024-03-17T04:10:59;100252.31;;;-2.62;50.06
74544;BME280;63016;55.030;38.710;2024-03-17T04:13:26;100251.38;;;-2.59;50.44
74544;BME280;63016;55.030;38.710;2024-03-17T04:15:52;100253.09;;;-2.60;50.11
74544;BME280;63016;55.030;38.710;2024-03-17T04:18:23;100254.66;;;-2.57;50.16
74544;BME280;63016;55.030;38.710;2024-03-17T04:20:51;100251.38;;;-2.59;50.33
74544;BME280;63016;55.030;38.710;2024-03-17T04:23:17;100253.69;;;-2.54;50.30
74544;BME280;63016;55.030;38.710;2024-03-17T04:25:42;100250.25;;;-2.53;50.26
74544;BME280;63016;55.030;38.710;2024-03-17T04:28:09;100246.72;;;-2.51;50.38
74544;BME280;63016;55.030;38.710;2024-03-17T04:30:34;100243.09;;;-2.47;50.26
74544;BME280;63016;55.030;38.710;2024-03-17T04:33:00;100227.13;;;-2.50;50.32
74544;BME280;63016;55.030;38.710;2024-03-17T04:35:25;100242.00;;;-2.41;50.82
74544;BME280;63016;55.030;38.710;2024-03-17T04:37:51;100243.56;;;-2.39;50.41
74544;BME280;63016;55.030;38.710;2024-03-17T04:40:17;100234.84;;;-2.35;50.50
74544;BME280;63016;55.030;38.710;2024-03-17T04:42:43;100251.59;;;-2.29;50.60
74544;BME280;63016;55.030;38.710;2024-03-17T04:45:09;100241.97;;;-2.24;50.63
74544;BME280;63016;55.030;38.710;2024-03-17T04:47:35;100228.97;;;-2.19;50.70
74544;BME280;63016;55.030;38.710;2024-03-17T04:50:00;100238.00;;;-2.12;51.17
74544;BME280;63016;55.030;38.710;2024-03-17T04:52:26;100235.28;;;-2.09;50.65
74544;BME280;63016;55.030;38.710;2024-03-17T04:54:51;100233.25;;;-2.02;50.93
74544;BME280;63016;55.030;38.710;2024-03-17T04:57:17;100232.19;;;-1.98;51.20
74544;BME280;63016;55.030;38.710;2024-03-17T04:59:42;100249.69;;;-1.91;51.20
74544;BME280;63016;55.030;38.710;2024-03-17T05:02:08;100238.28;;;-1.84;51.31
74544;BME280;63016;55.030;38.710;2024-03-17T05:04:33;100234.47;;;-1.76;51.16
74544;BME280;63016;55.030;38.710;2024-03-17T05:06:59;100241.84;;;-1.70;51.11
74544;BME280;63016;55.030;38.710;2024-03-17T05:09:24;100240.44;;;-1.60;51.63
74544;BME280;63016;55.030;38.710;2024-03-17T05:11:50;100243.44;;;-1.52;51.73
74544;BME280;63016;55.030;38.710;2024-03-17T05:14:17;100240.41;;;-1.43;51.38
74544;BME280;63016;55.030;38.710;2024-03-17T05:16:45;100240.91;;;-1.36;51.89
74544;BME280;63016;55.030;38.710;2024-03-17T05:19:10;100239.59;;;-1.27;51.45
74544;BME280;63016;55.030;38.710;2024-03-17T05:21:36;100245.88;;;-1.17;52.24
74544;BME280;63016;55.030;38.710;2024-03-17T05:24:02;100255.53;;;-1.07;51.81
74544;BME280;63016;55.030;38.710;2024-03-17T05:26:28;100241.75;;;-1.04;51.88
74544;BME280;63016;55.030;38.710;2024-03-17T05:28:53;100251.91;;;-0.87;52.14
74544;BME280;63016;55.030;38.710;2024-03-17T05:31:20;100243.69;;;-0.78;52.72
74544;BME280;63016;55.030;38.710;2024-03-17T05:33:47;100240.56;;;-0.67;52.31
74544;BME280;63016;55.030;38.710;2024-03-17T05:36:13;100239.97;;;-0.56;52.55
74544;BME280;63016;55.030;38.710;2024-03-17T05:38:39;100237.69;;;-0.46;52.53
74544;BME280;63016;55.030;38.710;2024-03-17T05:41:08;100232.72;;;-0.34;52.57
74544;BME280;63016;55.030;38.710;2024-03-17T05:43:36;100237.28;;;-0.24;52.58
74544;BME280;63016;55.030;38.710;2024-03-17T05:46:03;100237.41;;;-0.12;52.86
74544;BME280;63016;55.030;38.710;2024-03-17T05:48:38;100240.44;;;-0.05;52.56
74544;BME280;63016;55.030;38.710;2024-03-17T05:51:09;100250.38;;;0.15;52.72
74544;BME280;63016;55.030;38.710;2024-03-17T05:53:35;100251.47;;;0.25;53.33
74544;BME280;63016;55.030;38.710;2024-03-17T05:56:02;100249.91;;;0.37;53.20
74544;BME280;63016;55.030;38.710;2024-03-17T05:58:28;100243.84;;;0.52;53.33
74544;BME280;63016;55.030;38.710;2024-03-17T06:00:53;100248.09;;;0.68;53.34
74544;BME280;63016;55.030;38.710;2024-03-17T06:03:19;100237.22;;;0.77;53.77
74544;BME280;63016;55.030;38.710;2024-03-17T06:05:44;100249.56;;;0.99;54.03
74544;BME280;63016;55.030;38.710;2024-03-17T06:08:13;100243.56;;;1.13;53.63
74544;BME280;63016;55.030;38.710;2024-03-17T06:10:46;100246.41;;;1.35;54.50
74544;BME280;63016;55.030;38.710;2024-03-17T06:13:12;100248.63;;;1.54;54.03
74544;BME280;63016;55.030;38.710;2024-03-17T06:15:39;100244.97;;;1.71;53.85
74544;BME280;63016;55.030;38.710;2024-03-17T06:18:05;100242.97;;;1.89;53.92
74544;BME280;63016;55.030;38.710;2024-03-17T06:20:34;100238.44;;;2.05;54.24
74544;BME280;63016;55.030;38.710;2024-03-17T06:23:00;100243.16;;;2.24;54.15
74544;BME280;63016;55.030;38.710;2024-03-17T06:25:26;100242.81;;;2.41;54.39
74544;BME280;63016;55.030;38.710;2024-03-17T06:27:51;100245.78;;;2.61;54.02
74544;BME280;63016;55.030;38.710;2024-03-17T06:30:18;100247.22;;;2.77;54.07
74544;BME280;63016;55.030;38.710;2024-03-17T06:32:44;100245.00;;;2.97;54.19
74544;BME280;63016;55.030;38.710;2024-03-17T06:35:11;100239.69;;;3.11;54.17
74544;BME280;63016;55.030;38.710;2024-03-17T06:37:37;100234.03;;;3.30;53.93
74544;BME280;63016;55.030;38.710;2024-03-17T06:40:04;100233.53;;;3.49;54.28
74544;BME280;63016;55.030;38.710;2024-03-17T06:42:31;100246.00;;;3.66;54.40
74544;BME280;63016;55.030;38.710;2024-03-17T06:44:56;100234.44;;;3.83;54.25
74544;BME280;63016;55.030;38.710;2024-03-17T06:47:22;100240.91;;;4.00;54.37
74544;BME280;63016;55.030;38.710;2024-03-17T06:49:48;100240.72;;;4.14;54.20
74544;BME280;63016;55.030;38.710;2024-03-17T06:52:13;100237.91;;;4.28;54.26
74544;BME280;63016;55.030;38.710;2024-03-17T06:54:39;100239.31;;;4.44;54.19
74544;BME280;63016;55.030;38.710;2024-03-17T06:57:05;100240.03;;;4.57;54.11
74544;BME280;63016;55.030;38.710;2024-03-17T06:59:33;100235.56;;;4.70;53.91
74544;BME280;63016;55.030;38.710;2024-03-17T07:01:58;100238.81;;;4.83;54.09
74544;BME280;63016;55.030;38.710;2024-03-17T07:04:24;100240.06;;;5.00;54.24
74544;BME280;63016;55.030;38.710;2024-03-17T07:06:49;100250.28;;;5.13;54.42
74544;BME280;63016;55.030;38.710;2024-03-17T07:09:15;100246.72;;;5.25;53.78
74544;BME280;63016;55.030;38.710;2024-03-17T07:11:42;100242.44;;;5.35;53.81
74544;BME280;63016;55.030;38.710;2024-03-17T07:14:09;100245.91;;;5.46;53.58
74544;BME280;63016;55.030;38.710;2024-03-17T07:16:35;100247.31;;;5.50;53.29
74544;BME280;63016;55.030;38.710;2024-03-17T07:19:02;100246.00;;;5.55;53.41
74544;BME280;63016;55.030;38.710;2024-03-17T07:21:28;100239.25;;;5.64;53.62
74544;BME280;63016;55.030;38.710;2024-03-17T07:23:53;100231.94;;;5.69;53.35
74544;BME280;63016;55.030;38.710;2024-03-17T07:26:19;100228.16;;;5.73;53.53
74544;BME280;63016;55.030;38.710;2024-03-17T07:28:44;100221.97;;;5.85;54.02
74544;BME280;63016;55.030;38.710;2024-03-17T07:31:10;100231.91;;;6.01;53.71
74544;BME280;63016;55.030;38.710;2024-03-17T07:33:36;100228.28;;;6.13;53.69
74544;BME280;63016;55.030;38.710;2024-03-17T07:36:02;100235.72;;;6.28;54.00
74544;BME280;63016;55.030;38.710;2024-03-17T07:38:30;100227.88;;;6.39;53.43
74544;BME280;63016;55.030;38.710;2024-03-17T07:43:26;100229.19;;;6.64;53.38
74544;BME280;63016;55.030;38.710;2024-03-17T07:45:59;100233.44;;;6.75;53.69
74544;BME280;63016;55.030;38.710;2024-03-17T07:48:25;100238.78;;;6.83;53.69
74544;BME280;63016;55.030;38.710;2024-03-17T07:50:54;100226.81;;;6.91;53.28
74544;BME280;63016;55.030;38.710;2024-03-17T07:53:20;100231.88;;;7.03;53.87
74544;BME280;63016;55.030;38.710;2024-03-17T07:55:46;100229.53;;;7.09;53.49
74544;BME280;63016;55.030;38.710;2024-03-17T07:58:11;100222.88;;;7.16;53.51
74544;BME280;63016;55.030;38.710;2024-03-17T08:00:37;100229.28;;;7.22;53.82
74544;BME280;63016;55.030;38.710;2024-03-17T08:03:03;100217.28;;;7.31;53.67
74544;BME280;63016;55.030;38.710;2024-03-17T08:05:29;100225.19;;;7.39;53.40
74544;BME280;63016;55.030;38.710;2024-03-17T08:07:55;100226.28;;;7.46;52.98
74544;BME280;63016;55.030;38.710;2024-03-17T08:10:20;100217.78;;;7.54;53.37
74544;BME280;63016;55.030;38.710;2024-03-17T08:12:47;100224.91;;;7.61;53.43
74544;BME280;63016;55.030;38.710;2024-03-17T08:15:12;100223.38;;;7.68;52.79
74544;BME280;63016;55.030;38.710;2024-03-17T08:17:39;100222.97;;;7.73;53.02
74544;BME280;63016;55.030;38.710;2024-03-17T08:20:05;100213.53;;;7.82;53.18
74544;BME280;63016;55.030;38.710;2024-03-17T08:22:31;100209.28;;;7.90;53.31
74544;BME280;63016;55.030;38.710;2024-03-17T08:24:56;100212.13;;;7.97;53.50
74544;BME280;63016;55.030;38.710;2024-03-17T08:27:22;100208.97;;;8.03;53.07
74544;BME280;63016;55.030;38.710;2024-03-17T08:29:48;100207.59;;;8.09;53.33
74544;BME280;63016;55.030;38.710;2024-03-17T08:32:14;100207.84;;;8.15;52.88
74544;BME280;63016;55.030;38.710;2024-03-17T08:34:40;100201.25;;;8.21;52.95
74544;BME280;63016;55.030;38.710;2024-03-17T08:37:05;100200.81;;;8.25;53.16
74544;BME280;63016;55.030;38.710;2024-03-17T08:39:30;100196.53;;;8.34;52.92
74544;BME280;63016;55.030;38.710;2024-03-17T08:41:56;100202.31;;;8.38;53.31
74544;BME280;63016;55.030;38.710;2024-03-17T08:44:22;100202.53;;;8.44;52.79
74544;BME280;63016;55.030;38.710;2024-03-17T08:46:47;100194.31;;;8.49;52.65
74544;BME280;63016;55.030;38.710;2024-03-17T08:49:12;100193.88;;;8.54;52.59
74544;BME280;63016;55.030;38.710;2024-03-17T08:51:38;100200.44;;;8.58;52.41
74544;BME280;63016;55.030;38.710;2024-03-17T08:54:03;100205.38;;;8.61;52.44
74544;BME280;63016;55.030;38.710;2024-03-17T08:56:29;100197.41;;;8.62;52.84
74544;BME280;63016;55.030;38.710;2024-03-17T08:58:54;100193.84;;;8.63;51.85
74544;BME280;63016;55.030;38.710;2024-03-17T09:01:20;100199.03;;;8.63;52.13
74544;BME280;63016;55.030;38.710;2024-03-17T09:03:45;100201.63;;;8.63;52.99
74544;BME280;63016;55.030;38.710;2024-03-17T09:06:16;100195.63;;;8.63;51.89
74544;BME280;63016;55.030;38.710;2024-03-17T09:08:44;100196.28;;;8.65;52.43
74544;BME280;63016;55.030;38.710;2024-03-17T09:11:13;100196.16;;;8.66;52.44
74544;BME280;63016;55.030;38.710;2024-03-17T09:13:39;100200.09;;;8.70;52.88
74544;BME280;63016;55.030;38.710;2024-03-17T09:16:04;100196.22;;;8.74;52.82
74544;BME280;63016;55.030;38.710;2024-03-17T09:18:32;100193.63;;;8.74;52.79
74544;BME280;63016;55.030;38.710;2024-03-17T09:20:59;100197.81;;;8.85;52.38
74544;BME280;63016;55.030;38.710;2024-03-17T09:23:26;100198.63;;;8.86;52.26
74544;BME280;63016;55.030;38.710;2024-03-17T09:28:21;100191.34;;;8.71;52.07
74544;BME280;63016;55.030;38.710;2024-03-17T09:30:47;100192.81;;;8.74;52.35
74544;BME280;63016;55.030;38.710;2024-03-17T09:33:13;100185.38;;;8.79;52.71
74544;BME280;63016;55.030;38.710;2024-03-17T09:35:38;100184.81;;;8.85;52.15
74544;BME280;63016;55.030;38.710;2024-03-17T09:38:04;100182.59;;;8.90;52.74
74544;BME280;63016;55.030;38.710;2024-03-17T09:40:30;100182.44;;;8.92;51.89
74544;BME280;63016;55.030;38.710;2024-03-17T09:42:56;100184.06;;;8.93;52.48
74544;BME280;63016;55.030;38.710;2024-03-17T09:45:24;100178.56;;;8.96;52.22
74544;BME280;63016;55.030;38.710;2024-03-17T09:47:51;100186.59;;;9.02;52.64
74544;BME280;63016;55.030;38.710;2024-03-17T09:50:16;100176.56;;;9.08;52.26
74544;BME280;63016;55.030;38.710;2024-03-17T09:52:44;100181.19;;;9.14;52.26
74544;BME280;63016;55.030;38.710;2024-03-17T09:55:15;100175.66;;;9.17;51.88
74544;BME280;63016;55.030;38.710;2024-03-17T09:57:42;100172.44;;;9.23;52.16
74544;BME280;63016;55.030;38.710;2024-03-17T10:00:13;100174.25;;;9.22;52.16
74544;BME280;63016;55.030;38.710;2024-03-17T10:02:45;100173.31;;;9.23;51.53
74544;BME280;63016;55.030;38.710;2024-03-17T10:05:27;100160.41;;;9.22;51.87
74544;BME280;63016;55.030;38.710;2024-03-17T10:07:53;100165.31;;;9.25;52.59
74544;BME280;63016;55.030;38.710;2024-03-17T10:10:20;100157.69;;;9.23;51.98
74544;BME280;63016;55.030;38.710;2024-03-17T10:12:50;100159.44;;;9.23;51.57
74544;BME280;63016;55.030;38.710;2024-03-17T10:15:19;100156.19;;;9.21;52.15
74544;BME280;63016;55.030;38.710;2024-03-17T10:17:49;100160.28;;;9.23;51.91
74544;BME280;63016;55.030;38.710;2024-03-17T10:25:28;100151.50;;;9.24;51.45
74544;BME280;63016;55.030;38.710;2024-03-17T10:27:55;100147.41;;;9.22;51.93
74544;BME280;63016;55.030;38.710;2024-03-17T10:30:22;100149.88;;;9.23;51.94
74544;BME280;63016;55.030;38.710;2024-03-17T10:32:57;100139.91;;;9.19;50.93
74544;BME280;63016;55.030;38.710;2024-03-17T10:35:31;100138.84;;;9.12;51.54
74544;BME280;63016;55.030;38.710;2024-03-17T10:38:01;100146.81;;;9.10;52.11
74544;BME280;63016;55.030;38.710;2024-03-17T10:40:29;100144.06;;;9.12;51.68
74544;BME280;63016;55.030;38.710;2024-03-17T10:42:56;100141.81;;;9.17;52.12
74544;BME280;63016;55.030;38.710;2024-03-17T10:45:22;100138.78;;;9.21;51.76
74544;BME280;63016;55.030;38.710;2024-03-17T10:47:50;100146.41;;;9.23;51.84
74544;BME280;63016;55.030;38.710;2024-03-17T10:50:21;100137.50;;;9.25;51.78
74544;BME280;63016;55.030;38.710;2024-03-17T10:52:49;100135.56;;;9.27;51.60
74544;BME280;63016;55.030;38.710;2024-03-17T10:57:46;100129.03;;;9.23;51.39
74544;BME280;63016;55.030;38.710;2024-03-17T11:00:16;100125.47;;;9.24;51.61
74544;BME280;63016;55.030;38.710;2024-03-17T11:02:44;100118.47;;;9.25;51.41
74544;BME280;63016;55.030;38.710;2024-03-17T11:05:26;100121.72;;;9.27;51.60
74544;BME280;63016;55.030;38.710;2024-03-17T11:07:57;100110.72;;;9.33;52.03
74544;BME280;63016;55.030;38.710;2024-03-17T11:12:56;100117.25;;;9.37;51.74
74544;BME280;63016;55.030;38.710;2024-03-17T11:17:53;100110.19;;;9.30;51.44
74544;BME280;63016;55.030;38.710;2024-03-17T11:20:23;100107.06;;;9.26;51.33
74544;BME280;63016;55.030;38.710;2024-03-17T11:22:50;100098.53;;;9.16;50.76
74544;BME280;63016;55.030;38.710;2024-03-17T11:25:37;100100.50;;;9.14;51.35
74544;BME280;63016;55.030;38.710;2024-03-17T11:28:04;100119.97;;;9.10;51.49
74544;BME280;63016;55.030;38.710;2024-03-17T11:41:41;100097.53;;;8.91;51.76
74544;BME280;63016;55.030;38.710;2024-03-17T11:44:25;100104.00;;;8.87;51.88
74544;BME280;63016;55.030;38.710;2024-03-17T11:47:09;100100.41;;;8.88;51.87
74544;BME280;63016;55.030;38.710;2024-03-17T11:49:53;100101.09;;;8.90;51.24
74544;BME280;63016;55.030;38.710;2024-03-17T11:52:38;100101.22;;;8.88;51.88
74544;BME280;63016;55.030;38.710;2024-03-17T11:55:22;100099.31;;;8.90;51.94
74544;BME280;63016;55.030;38.710;2024-03-17T11:58:13;100105.09;;;8.84;51.31
74544;BME280;63016;55.030;38.710;2024-03-17T12:01:04;100104.22;;;8.75;51.22
74544;BME280;63016;55.030;38.710;2024-03-17T12:03:55;100106.31;;;8.72;51.26
74544;BME280;63016;55.030;38.710;2024-03-17T12:06:48;100106.31;;;8.72;51.88
74544;BME280;63016;55.030;38.710;2024-03-17T15:07:46;100036.34;;;7.51;50.62
74544;BME280;63016;55.030;38.710;2024-03-17T17:49:58;100017.06;;;5.08;51.45
74544;BME280;63016;55.030;38.710;2024-03-17T17:52:42;100018.00;;;5.07;51.55
74544;BME280;63016;55.030;38.710;2024-03-17T17:55:28;100020.59;;;5.07;51.91
74544;BME280;63016;55.030;38.710;2024-03-17T17:58:19;100014.72;;;5.05;51.56
74544;BME280;63016;55.030;38.710;2024-03-17T18:01:11;100018.28;;;5.04;51.74
74544;BME280;63016;55.030;38.710;2024-03-17T18:04:02;100011.72;;;5.00;51.84
74544;BME280;63016;55.030;38.710;2024-03-17T18:06:53;100008.31;;;4.99;51.53
74544;BME280;63016;55.030;38.710;2024-03-17T18:09:44;100014.44;;;4.98;51.99
74544;BME280;63016;55.030;38.710;2024-03-17T18:12:35;100013.59;;;4.98;51.81
74544;BME280;63016;55.030;38.710;2024-03-17T18:16:05;100013.72;;;4.96;51.72
74544;BME280;63016;55.030;38.710;2024-03-17T18:18:57;100015.03;;;4.90;51.75
74544;BME280;63016;55.030;38.710;2024-03-17T18:21:41;100014.38;;;4.88;51.68
74544;BME280;63016;55.030;38.710;2024-03-17T18:34:49;100007.22;;;4.81;51.56
74544;BME280;63016;55.030;38.710;2024-03-17T18:37:14;100009.00;;;4.80;51.72
74544;BME280;63016;55.030;38.710;2024-03-17T18:39:41;100008.28;;;4.78;51.83
74544;BME280;63016;55.030;38.710;2024-03-17T18:42:10;100006.66;;;4.77;52.00
74544;BME280;63016;55.030;38.710;2024-03-17T18:44:36;100010.06;;;4.78;51.91
74544;BME280;63016;55.030;38.710;2024-03-17T18:47:01;100005.69;;;4.78;51.74
74544;BME280;63016;55.030;38.710;2024-03-17T18:49:28;99999.72;;;4.78;52.02
74544;BME280;63016;55.030;38.710;2024-03-17T18:51:54;99994.53;;;4.78;51.51
74544;BME280;63016;55.030;38.710;2024-03-17T18:54:19;100005.69;;;4.78;51.39
74544;BME280;63016;55.030;38.710;2024-03-17T18:56:45;100007.59;;;4.76;51.73
74544;BME280;63016;55.030;38.710;2024-03-17T18:59:11;100009.22;;;4.77;51.78
74544;BME280;63016;55.030;38.710;2024-03-17T19:01:37;100001.47;;;4.77;51.63
74544;BME280;63016;55.030;38.710;2024-03-17T19:04:03;99999.97;;;4.75;51.88
74544;BME280;63016;55.030;38.710;2024-03-17T19:06:29;100002.56;;;4.75;51.51
74544;BME280;63016;55.030;38.710;2024-03-17T19:08:56;100000.91;;;4.74;51.94